Time;durP1;ratioP1;P1;durP2;ratioP2;P2;SDS_P1;SDS_P2;PMS_P1;PMS_P2;Temp;Humidity;BMP_temperature;BMP_pressure;BME280_temperature;BME280_humidity;BME280_pressure;Samples;Min_cycle;Max_cycle;Signal;HPM_P1;HPM_P2
2022/05/21 00:00:06;;;;;;;9.48;7.35;;;12.80;99.90;;;;;;4997797;28;89416;-72
2022/05/21 00:02:33;;;;;;;11.30;7.70;;;12.80;99.90;;;;;;5013009;28;89442;-72
2022/05/21 00:05:01;;;;;;;10.50;7.43;;;12.80;99.90;;;;;;4979968;28;88442;-73
2022/05/21 00:07:29;;;;;;;11.77;7.25;;;12.80;99.90;;;;;;4996292;28;87995;-73
2022/05/21 00:09:56;;;;;;;9.95;7.03;;;12.80;99.90;;;;;;4997537;28;88506;-73
2022/05/21 00:12:23;;;;;;;10.18;6.50;;;12.80;99.90;;;;;;4997550;28;88013;-72
2022/05/21 00:14:52;;;;;;;10.32;7.13;;;12.80;99.90;;;;;;4996468;28;88336;-72
2022/05/21 00:17:20;;;;;;;11.57;7.03;;;12.80;99.90;;;;;;5012668;28;91466;-73
2022/05/21 00:19:47;;;;;;;11.20;6.80;;;12.80;99.90;;;;;;4997187;28;88879;-72
2022/05/21 00:22:14;;;;;;;10.40;6.80;;;12.80;99.90;;;;;;4995218;28;105254;-73
2022/05/21 00:24:41;;;;;;;10.90;6.82;;;12.70;99.90;;;;;;4979542;28;88309;-73
2022/05/21 00:27:08;;;;;;;10.77;7.05;;;12.70;99.90;;;;;;4995946;28;88686;-72
2022/05/21 00:29:35;;;;;;;8.88;6.68;;;12.80;99.90;;;;;;4997545;28;88810;-72
2022/05/21 00:32:03;;;;;;;9.32;6.55;;;12.70;99.90;;;;;;4995702;28;88034;-72
2022/05/21 00:34:30;;;;;;;10.45;6.68;;;12.70;99.90;;;;;;4979265;28;91076;-73
2022/05/21 00:36:57;;;;;;;12.80;6.57;;;12.70;99.90;;;;;;5012365;28;91367;-72
2022/05/21 00:39:24;;;;;;;10.63;7.30;;;12.70;99.90;;;;;;4997498;28;88654;-72
2022/05/21 00:41:51;;;;;;;12.20;7.53;;;12.70;99.90;;;;;;4995789;28;88032;-73
2022/05/21 00:44:18;;;;;;;9.43;6.65;;;12.70;99.90;;;;;;4996945;28;88057;-72
2022/05/21 00:46:48;;;;;;;9.55;7.00;;;12.70;99.90;;;;;;4996460;28;89546;-72
2022/05/21 00:49:27;;;;;;;11.68;7.80;;;12.70;99.90;;;;;;4996928;28;89414;-72
2022/05/21 00:52:17;;;;;;;14.23;7.95;;;12.70;99.90;;;;;;4996227;28;88080;-72
2022/05/21 00:54:48;;;;;;;11.30;7.85;;;12.70;99.90;;;;;;4995357;28;89478;-72
2022/05/21 00:57:27;;;;;;;11.75;8.95;;;12.60;99.90;;;;;;4996846;28;88857;-73
2022/05/21 01:00:00;;;;;;;11.88;9.45;;;12.60;99.90;;;;;;4998816;28;91600;-72
2022/05/21 01:02:32;;;;;;;14.80;10.18;;;12.60;99.90;;;;;;5000303;28;87990;-73
2022/05/21 01:05:02;;;;;;;18.52;11.45;;;12.60;99.90;;;;;;4999541;28;88506;-72
2022/05/21 01:07:30;;;;;;;20.48;12.57;;;12.60;99.90;;;;;;4999507;28;88796;-72
2022/05/21 01:09:58;;;;;;;15.98;12.65;;;12.60;99.90;;;;;;4997555;28;90960;-72
2022/05/21 01:12:28;;;;;;;22.17;13.68;;;12.60;99.90;;;;;;4999231;28;88918;-73
2022/05/21 01:14:59;;;;;;;21.15;14.43;;;12.60;99.90;;;;;;4999135;28;88512;-72
2022/05/21 01:17:26;;;;;;;20.02;15.18;;;12.60;99.90;;;;;;4999622;28;89140;-73
2022/05/21 01:20:02;;;;;;;25.63;17.38;;;12.60;99.90;;;;;;5014256;28;92088;-72
2022/05/21 01:22:39;;;;;;;25.20;17.10;;;12.60;99.90;;;;;;4998058;28;88523;-72
2022/05/21 01:25:07;;;;;;;26.38;17.80;;;12.60;99.90;;;;;;4997688;28;91073;-73
2022/05/21 01:27:35;;;;;;;27.38;17.58;;;12.70;99.90;;;;;;4998065;28;88700;-72
2022/05/21 01:30:04;;;;;;;30.33;19.25;;;12.70;99.90;;;;;;4999200;28;89641;-73
2022/05/21 01:32:31;;;;;;;30.55;19.23;;;12.80;99.90;;;;;;4997776;28;88507;-73
2022/05/21 01:34:59;;;;;;;28.42;19.98;;;12.80;99.90;;;;;;4998807;28;88538;-73
2022/05/21 01:37:26;;;;;;;30.25;19.67;;;12.90;99.90;;;;;;4999013;28;89596;-72
2022/05/21 01:39:53;;;;;;;33.85;22.73;;;12.90;99.90;;;;;;4998816;28;89410;-73
2022/05/21 01:42:20;;;;;;;34.83;22.15;;;13.00;99.90;;;;;;4999049;28;89081;-72
2022/05/21 01:44:52;;;;;;;32.97;23.15;;;13.00;99.90;;;;;;4997333;28;91568;-73
2022/05/21 01:47:20;;;;;;;36.53;23.45;;;13.10;99.90;;;;;;4999075;28;88656;-72
2022/05/21 01:49:47;;;;;;;36.10;25.05;;;13.10;99.90;;;;;;4997773;28;89566;-72
2022/05/21 01:52:14;;;;;;;37.15;24.00;;;13.20;99.90;;;;;;4980287;28;91503;-72
2022/05/21 01:54:41;;;;;;;36.03;25.85;;;13.20;99.90;;;;;;4997829;28;88520;-72
2022/05/21 01:57:09;;;;;;;35.95;23.35;;;13.30;99.90;;;;;;4997250;28;89402;-72
2022/05/21 01:59:37;;;;;;;37.42;24.20;;;13.30;99.90;;;;;;4997462;28;92079;-72
2022/05/21 02:02:04;;;;;;;35.45;24.15;;;13.40;99.90;;;;;;4997005;28;91704;-72
2022/05/21 02:04:31;;;;;;;35.25;22.35;;;13.40;99.90;;;;;;4980969;28;88589;-72
2022/05/21 02:06:58;;;;;;;35.80;24.95;;;13.50;99.90;;;;;;4998365;28;88851;-73
2022/05/21 02:09:26;;;;;;;35.13;24.27;;;13.50;99.90;;;;;;4997299;28;89387;-73
2022/05/21 02:11:53;;;;;;;30.42;23.80;;;13.60;99.90;;;;;;4997426;28;88490;-73
2022/05/21 02:14:20;;;;;;;37.20;26.02;;;13.60;99.90;;;;;;4980665;28;90153;-73
2022/05/21 02:16:47;;;;;;;38.90;26.35;;;13.70;99.90;;;;;;4998517;28;88780;-72
2022/05/21 02:19:14;;;;;;;36.70;26.35;;;13.70;99.90;;;;;;4998588;28;89322;-73
2022/05/21 02:21:41;;;;;;;37.75;27.70;;;13.70;99.90;;;;;;4997186;28;89068;-72
2022/05/21 02:24:10;;;;;;;38.38;28.17;;;13.80;99.90;;;;;;4996851;28;89427;-73
2022/05/21 02:26:38;;;;;;;36.53;27.45;;;13.80;99.90;;;;;;4996700;28;92374;-73
2022/05/21 02:29:06;;;;;;;38.08;28.73;;;13.80;99.90;;;;;;5013165;28;91865;-73
2022/05/21 02:31:33;;;;;;;41.20;28.40;;;13.80;99.90;;;;;;4998101;28;91617;-72
2022/05/21 02:34:00;;;;;;;38.38;27.38;;;13.80;99.90;;;;;;4980174;28;88493;-72
2022/05/21 02:39:31;;;;;;;43.60;29.35;;;13.90;99.90;;;;;;4996583;28;91908;-72
2022/05/21 02:42:00;;;;;;;42.45;29.90;;;13.90;99.90;;;;;;4996662;28;89017;-72
2022/05/21 02:44:28;;;;;;;40.60;28.17;;;13.90;99.90;;;;;;4980588;28;88909;-72
2022/05/21 02:46:56;;;;;;;41.88;29.50;;;13.90;99.90;;;;;;4996741;28;88734;-73
2022/05/21 02:49:23;;;;;;;46.92;29.40;;;14.00;99.90;;;;;;4997932;28;89370;-72
2022/05/21 02:51:50;;;;;;;41.38;29.90;;;14.00;99.90;;;;;;4997281;28;89036;-72
2022/05/21 02:54:18;;;;;;;45.53;30.95;;;14.00;99.90;;;;;;4997778;28;88414;-72
2022/05/21 02:56:49;;;;;;;36.55;26.95;;;14.10;99.90;;;;;;4997920;28;88737;-72
2022/05/21 02:59:17;;;;;;;44.58;28.92;;;14.10;99.90;;;;;;4997655;28;89533;-72
2022/05/21 03:01:44;;;;;;;38.22;28.13;;;14.10;99.90;;;;;;4997933;28;88902;-72
2022/05/21 03:04:11;;;;;;;37.20;29.58;;;14.10;99.90;;;;;;4996294;28;89004;-73
2022/05/21 03:06:39;;;;;;;39.63;29.13;;;14.20;99.90;;;;;;4997522;28;88574;-73
2022/05/21 03:11:51;;;;;;;44.33;30.40;;;14.20;99.90;;;;;;4997810;28;89097;-73
2022/05/21 03:14:18;;;;;;;39.22;29.48;;;14.20;99.90;;;;;;4979668;28;88522;-72
2022/05/21 03:16:45;;;;;;;42.08;28.15;;;14.20;99.90;;;;;;4979497;28;92446;-72
2022/05/21 03:19:12;;;;;;;38.80;28.60;;;14.20;99.90;;;;;;4997062;28;89158;-73
2022/05/21 03:21:39;;;;;;;43.28;30.08;;;14.20;99.90;;;;;;4979142;28;90115;-72
2022/05/21 03:24:06;;;;;;;35.65;27.20;;;14.20;99.90;;;;;;4997328;28;88492;-72
2022/05/21 03:26:35;;;;;;;41.10;28.02;;;14.30;99.90;;;;;;4979488;28;91361;-72
2022/05/21 03:29:02;;;;;;;34.15;28.48;;;14.30;99.90;;;;;;4996012;28;89466;-72
2022/05/21 03:31:29;;;;;;;36.28;27.10;;;14.30;99.90;;;;;;4997374;28;89075;-72
2022/05/21 03:33:57;;;;;;;32.80;25.02;;;14.30;99.90;;;;;;4995971;28;91330;-72
2022/05/21 03:36:24;;;;;;;35.78;26.05;;;14.30;99.90;;;;;;4995609;28;91311;-72
2022/05/21 03:38:52;;;;;;;31.10;25.30;;;14.30;99.90;;;;;;4997227;28;89265;-72
2022/05/21 03:41:20;;;;;;;37.45;27.83;;;14.40;99.90;;;;;;4995426;28;91624;-72
2022/05/21 03:43:47;;;;;;;35.25;24.80;;;14.40;99.90;;;;;;4996055;28;88502;-72
2022/05/21 03:46:14;;;;;;;37.13;25.40;;;14.40;99.90;;;;;;4995658;28;88762;-72
2022/05/21 03:48:41;;;;;;;29.80;23.15;;;14.40;99.90;;;;;;4996640;28;104326;-72
2022/05/21 03:51:08;;;;;;;34.03;24.92;;;14.50;99.90;;;;;;4995039;28;89054;-73
2022/05/21 03:53:35;;;;;;;33.60;26.08;;;14.50;99.90;;;;;;4997085;28;88657;-72
2022/05/21 03:56:03;;;;;;;32.55;23.00;;;14.50;99.90;;;;;;4997017;28;89125;-72
2022/05/21 03:58:31;;;;;;;29.63;21.23;;;14.50;99.90;;;;;;4996886;28;88711;-72
2022/05/21 04:00:58;;;;;;;31.88;24.25;;;14.50;99.90;;;;;;4996683;28;88926;-72
2022/05/21 04:03:26;;;;;;;35.95;24.42;;;14.60;99.90;;;;;;4996764;28;88475;-72
2022/05/21 04:05:55;;;;;;;32.17;22.83;;;14.60;99.90;;;;;;4995114;28;92096;-72
2022/05/21 04:08:22;;;;;;;32.40;23.50;;;14.60;99.90;;;;;;4996736;28;89440;-73
2022/05/21 04:10:51;;;;;;;26.45;21.42;;;14.60;99.90;;;;;;4979466;28;88999;-72
2022/05/21 04:13:18;;;;;;;31.67;22.95;;;14.70;99.90;;;;;;4996574;28;88424;-72
2022/05/21 04:15:45;;;;;;;31.90;23.23;;;14.70;99.90;;;;;;4996746;28;91557;-72
2022/05/21 04:18:13;;;;;;;30.15;23.20;;;14.70;99.90;;;;;;4996610;28;89297;-72
2022/05/21 04:20:41;;;;;;;31.85;23.10;;;14.70;99.90;;;;;;4996724;28;88980;-72
2022/05/21 04:23:08;;;;;;;30.15;20.92;;;14.80;99.90;;;;;;4995729;28;88975;-72
2022/05/21 04:25:36;;;;;;;30.98;22.20;;;14.80;99.90;;;;;;5011817;28;94897;-72
2022/05/21 04:28:03;;;;;;;25.98;20.67;;;14.80;99.90;;;;;;4994824;28;90426;-72
2022/05/21 04:30:31;;;;;;;27.73;18.52;;;14.80;99.90;;;;;;4995073;28;88896;-72
2022/05/21 04:32:58;;;;;;;29.42;18.98;;;14.80;99.90;;;;;;4996000;28;88638;-72
2022/05/21 04:36:17;;;;;;;29.77;17.38;;;14.90;99.90;;;;;;4998675;28;88587;-72
2022/05/21 04:38:17;;;;;;;27.73;18.27;;;14.90;99.90;;;;;;4999540;28;89449;-72
2022/05/21 04:40:44;;;;;;;29.88;18.33;;;14.90;99.90;;;;;;5015264;28;90706;-72
2022/05/21 04:43:11;;;;;;;27.55;15.38;;;14.90;99.90;;;;;;4999975;28;88459;-72
2022/05/21 04:45:38;;;;;;;27.98;15.70;;;15.00;99.90;;;;;;4981832;28;91772;-72
2022/05/21 04:48:07;;;;;;;23.08;14.05;;;14.90;99.90;;;;;;5000352;28;88967;-72
2022/05/21 04:50:36;;;;;;;20.92;13.68;;;15.00;99.90;;;;;;4981668;28;91675;-72
2022/05/21 04:53:04;;;;;;;21.92;13.10;;;15.00;99.90;;;;;;4998967;28;88513;-72
2022/05/21 04:55:31;;;;;;;21.98;13.52;;;15.00;99.90;;;;;;4997841;28;92156;-72
2022/05/21 04:57:58;;;;;;;22.58;11.57;;;15.00;99.90;;;;;;4999557;28;90666;-72
2022/05/21 05:00:25;;;;;;;22.45;11.50;;;15.00;99.90;;;;;;4981847;28;89243;-72
2022/05/21 05:02:53;;;;;;;21.75;10.65;;;15.00;99.90;;;;;;5014785;28;91158;-72
2022/05/21 05:05:20;;;;;;;15.13;8.65;;;15.00;99.90;;;;;;4981437;28;91273;-72
2022/05/21 05:07:47;;;;;;;17.23;8.02;;;15.00;99.90;;;;;;4998983;28;88654;-72
2022/05/21 05:10:15;;;;;;;17.73;7.28;;;15.10;99.90;;;;;;4998896;28;89644;-72
2022/05/21 05:12:42;;;;;;;18.52;6.68;;;15.20;99.90;;;;;;5000603;28;88418;-72
2022/05/21 05:15:09;;;;;;;14.05;5.88;;;15.30;99.90;;;;;;5000363;28;88749;-72
2022/05/21 05:17:36;;;;;;;13.93;5.57;;;15.40;99.90;;;;;;4999901;28;88675;-72
2022/05/21 05:20:04;;;;;;;11.20;5.57;;;15.50;99.90;;;;;;4998246;28;89595;-71
2022/05/21 05:22:31;;;;;;;17.33;5.90;;;15.50;99.90;;;;;;4998712;28;88550;-72
2022/05/21 05:25:04;;;;;;;16.00;6.70;;;15.50;99.90;;;;;;4998589;28;91625;-72
2022/05/21 05:27:31;;;;;;;16.67;6.28;;;15.50;99.90;;;;;;4997879;28;104903;-72
2022/05/21 05:30:00;;;;;;;18.73;5.97;;;15.70;99.90;;;;;;4982092;28;89584;-72
2022/05/21 05:32:27;;;;;;;11.93;5.00;;;15.70;99.90;;;;;;4998293;28;90903;-72
2022/05/21 05:34:54;;;;;;;18.48;5.28;;;15.90;99.90;;;;;;5015157;28;91730;-72
2022/05/21 05:37:21;;;;;;;15.07;5.28;;;16.10;99.90;;;;;;4998528;28;91448;-72
2022/05/21 05:39:49;;;;;;;16.13;5.78;;;16.30;99.90;;;;;;4999913;28;88017;-72
2022/05/21 05:42:17;;;;;;;17.58;4.85;;;16.50;99.90;;;;;;4998624;28;88148;-72
2022/05/21 05:44:44;;;;;;;12.93;5.75;;;16.60;99.90;;;;;;4980926;28;92131;-72
2022/05/21 05:47:11;;;;;;;13.50;5.57;;;16.60;99.90;;;;;;4999364;28;89390;-72
2022/05/21 05:49:38;;;;;;;12.95;5.40;;;16.70;99.90;;;;;;4998302;28;87972;-72
2022/05/21 05:52:05;;;;;;;11.65;4.05;;;16.70;99.90;;;;;;4997897;28;90951;-72
2022/05/21 05:54:33;;;;;;;12.68;5.15;;;16.70;99.90;;;;;;4999233;28;88535;-72
2022/05/21 05:57:01;;;;;;;12.00;4.68;;;16.80;99.90;;;;;;4998120;28;88709;-72
2022/05/21 06:04:58;;;;;;;12.05;3.88;;;16.80;99.90;;;;;;4999103;28;88967;-72
2022/05/21 06:07:25;;;;;;;10.73;3.92;;;16.80;99.90;;;;;;4997689;28;88452;-72
2022/05/21 06:09:54;;;;;;;10.75;4.75;;;16.80;99.90;;;;;;4999112;28;88727;-72
2022/05/21 06:12:21;;;;;;;11.77;3.47;;;16.80;99.90;;;;;;4997704;28;91095;-72
2022/05/21 06:14:48;;;;;;;10.80;3.85;;;16.90;99.90;;;;;;4999340;28;88750;-72
2022/05/21 06:17:15;;;;;;;14.02;3.80;;;17.10;99.90;;;;;;4999266;28;88546;-72
2022/05/21 06:19:42;;;;;;;9.13;3.80;;;17.30;99.90;;;;;;4981021;28;89341;-72
2022/05/21 06:22:09;;;;;;;10.93;3.42;;;17.40;99.90;;;;;;4997892;28;88096;-73
2022/05/21 06:24:37;;;;;;;10.25;4.18;;;17.40;99.90;;;;;;4997694;28;91414;-73
2022/05/21 06:27:06;;;;;;;10.18;4.07;;;17.40;99.90;;;;;;4997273;28;107444;-75
2022/05/21 06:29:33;;;;;;;9.57;3.63;;;17.40;99.90;;;;;;4997377;28;88325;-75
2022/05/21 06:32:00;;;;;;;6.63;2.92;;;17.40;99.90;;;;;;4999057;28;88524;-73
2022/05/21 06:34:26;;;;;;;6.47;3.40;;;17.40;99.90;;;;;;4997407;28;90665;-73
2022/05/21 06:36:53;;;;;;;11.70;2.70;;;17.40;99.90;;;;;;4998864;28;89514;-73
2022/05/21 06:39:20;;;;;;;9.65;4.32;;;17.50;99.90;;;;;;4997775;28;87980;-73
2022/05/21 06:41:48;;;;;;;5.00;3.10;;;17.70;99.90;;;;;;4998850;28;88396;-73
2022/05/21 06:44:16;;;;;;;8.90;4.05;;;17.70;99.90;;;;;;4997506;28;91365;-73
2022/05/21 06:46:43;;;;;;;10.00;4.05;;;17.80;99.90;;;;;;4998458;28;89394;-73
2022/05/21 06:49:11;;;;;;;8.15;3.42;;;17.80;99.90;;;;;;4998862;28;88096;-73
2022/05/21 06:51:38;;;;;;;7.35;2.72;;;17.80;99.90;;;;;;4998271;28;88361;-73
2022/05/21 06:54:05;;;;;;;6.95;3.40;;;17.80;99.90;;;;;;4998583;28;91964;-73
2022/05/21 06:56:32;;;;;;;7.45;3.72;;;17.70;99.90;;;;;;4996345;28;88698;-73
2022/05/21 06:58:59;;;;;;;9.10;3.25;;;17.70;99.90;;;;;;4998289;28;88813;-73
2022/05/21 07:01:26;;;;;;;7.40;2.78;;;17.70;99.90;;;;;;5013865;28;91019;-73
2022/05/21 07:03:53;;;;;;;8.82;4.57;;;17.60;99.90;;;;;;4980650;28;88891;-73
2022/05/21 07:09:06;;;;;;;11.02;3.22;;;17.40;99.90;;;;;;4998659;28;88093;-72
2022/05/21 07:11:33;;;;;;;7.53;3.20;;;17.50;99.90;;;;;;4998148;28;88313;-72
2022/05/21 07:14:00;;;;;;;7.55;2.78;;;17.50;99.90;;;;;;4997033;28;88869;-73
2022/05/21 07:16:27;;;;;;;7.57;2.85;;;17.50;99.90;;;;;;4998798;28;88575;-73
2022/05/21 07:18:54;;;;;;;7.72;3.75;;;17.50;99.90;;;;;;4997982;28;88069;-73
2022/05/21 07:21:21;;;;;;;8.48;2.92;;;17.60;99.90;;;;;;4996654;28;90941;-72
2022/05/21 07:23:48;;;;;;;5.32;2.58;;;17.70;99.90;;;;;;4996278;28;92122;-73
2022/05/21 07:26:17;;;;;;;7.82;4.18;;;18.00;99.90;;;;;;4997971;28;89383;-73
2022/05/21 07:28:44;;;;;;;9.07;2.85;;;18.30;99.90;;;;;;4998100;28;88329;-73
2022/05/21 07:31:12;;;;;;;7.43;2.88;;;18.50;99.90;;;;;;4996910;28;88191;-73
2022/05/21 07:33:40;;;;;;;7.78;2.58;;;18.60;99.90;;;;;;4997883;28;88797;-73
2022/05/21 07:36:07;;;;;;;9.20;2.65;;;18.70;99.50;;;;;;4996481;28;89764;-73
2022/05/21 07:38:34;;;;;;;10.20;3.70;;;18.80;99.60;;;;;;4998105;28;88063;-73
2022/05/21 07:41:01;;;;;;;5.80;2.85;;;18.80;99.40;;;;;;4996862;28;91004;-73
2022/05/21 07:43:30;;;;;;;5.47;2.60;;;18.80;98.00;;;;;;4996067;28;102436;-73
2022/05/21 07:45:58;;;;;;;7.00;2.53;;;18.80;98.70;;;;;;4996402;28;88395;-73
2022/05/21 07:48:27;;;;;;;7.63;2.22;;;18.80;98.40;;;;;;4997416;28;88808;-73
2022/05/21 07:50:57;;;;;;;8.93;2.50;;;18.70;98.80;;;;;;4996209;28;91113;-73
2022/05/21 07:53:28;;;;;;;7.60;4.05;;;18.70;98.90;;;;;;4996152;28;90000;-73
2022/05/21 07:55:55;;;;;;;5.45;1.95;;;18.50;97.60;;;;;;4979595;28;91307;-73
2022/05/21 07:58:25;;;;;;;7.40;3.13;;;18.50;98.40;;;;;;4996450;28;89420;-73
2022/05/21 08:00:54;;;;;;;9.80;3.33;;;19.00;99.20;;;;;;4997546;28;88344;-73
2022/05/21 08:03:24;;;;;;;7.25;3.63;;;19.80;98.40;;;;;;5013042;28;91491;-73
2022/05/21 08:05:51;;;;;;;6.47;2.50;;;20.70;96.10;;;;;;4997847;28;88494;-73
2022/05/21 08:08:18;;;;;;;8.55;2.40;;;21.50;93.70;;;;;;4998971;28;88334;-73
2022/05/21 08:10:46;;;;;;;7.60;3.30;;;21.90;92.90;;;;;;5001064;28;88428;-73
2022/05/21 08:13:15;;;;;;;7.25;2.88;;;21.90;91.20;;;;;;5000589;28;89517;-73
2022/05/21 08:15:43;;;;;;;4.05;2.90;;;22.30;91.70;;;;;;5000852;28;89421;-73
2022/05/21 08:18:10;;;;;;;6.03;2.42;;;22.70;90.10;;;;;;4983268;28;88387;-73
2022/05/21 08:20:39;;;;;;;7.95;2.20;;;23.00;88.30;;;;;;5000973;28;88273;-73
2022/05/21 08:28:37;;;;;;;6.82;2.90;;;23.60;85.80;;;;;;4999502;28;90468;-73
2022/05/21 08:31:04;;;;;;;7.03;2.20;;;23.10;85.40;;;;;;4999853;28;88935;-73
2022/05/21 08:33:31;;;;;;;6.68;3.55;;;23.00;86.10;;;;;;4982466;28;102989;-73
2022/05/21 08:35:59;;;;;;;10.60;3.60;;;23.60;84.90;;;;;;5000654;28;88551;-73
2022/05/21 08:38:26;;;;;;;9.50;2.83;;;23.90;81.40;;;;;;5000378;28;88842;-73
2022/05/21 08:41:03;;;;;;;7.57;4.28;;;24.20;80.30;;;;;;5000664;28;88367;-73
2022/05/21 08:43:54;;;;;;;7.70;2.90;;;24.70;79.20;;;;;;4999524;28;89012;-73
2022/05/21 08:46:37;;;;;;;8.35;3.10;;;25.20;74.30;;;;;;5015758;28;91206;-73
2022/05/21 08:49:08;;;;;;;7.03;2.28;;;25.00;74.10;;;;;;4998927;28;90056;-73
2022/05/21 08:51:44;;;;;;;8.13;2.72;;;24.30;76.00;;;;;;5000306;28;88450;-73
2022/05/21 08:54:21;;;;;;;6.05;2.78;;;23.80;77.90;;;;;;5000644;28;88522;-73
2022/05/21 08:56:50;;;;;;;10.30;4.03;;;23.70;80.70;;;;;;4999286;28;90163;-73
2022/05/21 08:59:21;;;;;;;9.80;2.40;;;23.90;79.80;;;;;;4998630;28;99512;-73
2022/05/21 09:01:48;;;;;;;6.60;2.30;;;24.10;77.00;;;;;;4998767;28;89554;-73
2022/05/21 09:04:15;;;;;;;8.57;2.90;;;24.20;77.80;;;;;;4998425;28;92106;-73
2022/05/21 09:06:51;;;;;;;5.40;3.08;;;24.00;76.00;;;;;;4998904;28;88204;-73
2022/05/21 09:09:34;;;;;;;8.48;3.33;;;23.70;75.20;;;;;;4999189;28;88123;-73
2022/05/21 09:12:16;;;;;;;5.50;2.15;;;23.20;77.00;;;;;;4998686;28;91130;-73
2022/05/21 09:14:46;;;;;;;8.48;3.17;;;22.80;78.50;;;;;;4998787;28;91369;-73
2022/05/21 09:17:24;;;;;;;7.72;2.53;;;22.40;79.90;;;;;;4982091;28;91119;-73
2022/05/21 09:19:57;;;;;;;7.25;3.47;;;22.20;80.80;;;;;;4999444;28;87996;-73
2022/05/21 09:22:29;;;;;;;9.95;2.88;;;22.00;81.70;;;;;;4999071;28;92530;-71
2022/05/21 09:25:19;;;;;;;5.82;2.15;;;22.00;83.20;;;;;;4998353;28;91467;-72
2022/05/21 09:27:49;;;;;;;5.90;2.08;;;22.00;81.70;;;;;;4998487;28;91119;-72
2022/05/21 09:30:23;;;;;;;7.93;2.75;;;22.10;81.40;;;;;;4999847;28;88744;-72
2022/05/21 09:32:53;;;;;;;8.27;3.53;;;22.10;81.50;;;;;;4998217;28;91015;-72
2022/05/21 09:35:32;;;;;;;7.10;1.83;;;22.00;81.90;;;;;;4999964;28;89799;-71
2022/05/21 09:38:21;;;;;;;7.03;2.42;;;22.00;80.80;;;;;;4998475;28;89145;-72
2022/05/21 09:40:49;;;;;;;6.35;3.00;;;22.10;80.70;;;;;;4999907;28;88004;-72
2022/05/21 09:46:23;;;;;;;3.92;1.70;;;22.20;79.20;;;;;;4999663;28;89000;-72
2022/05/21 09:48:51;;;;;;;5.70;2.72;;;22.30;79.50;;;;;;5000261;28;88581;-72
2022/05/21 09:51:31;;;;;;;7.72;2.00;;;22.20;79.30;;;;;;4998290;28;88072;-71
2022/05/21 09:53:59;;;;;;;7.40;2.08;;;22.30;79.80;;;;;;4998422;28;88425;-72
2022/05/21 09:56:28;;;;;;;6.18;3.85;;;22.10;80.30;;;;;;4997560;28;97851;-72
2022/05/21 09:59:20;;;;;;;4.93;2.60;;;21.90;79.80;;;;;;5014610;28;91937;-72
2022/05/21 10:01:50;;;;;;;6.32;2.13;;;21.90;80.50;;;;;;4999528;28;88085;-72
2022/05/21 10:04:29;;;;;;;5.82;2.25;;;22.00;80.90;;;;;;5014427;28;88448;-72
2022/05/21 10:07:05;;;;;;;6.72;3.88;;;22.10;80.70;;;;;;4999198;28;88909;-72
2022/05/21 10:12:43;;;;;;;7.00;3.78;;;22.10;80.70;;;;;;4997998;28;89418;-71
2022/05/21 10:15:17;;;;;;;7.30;2.55;;;21.90;81.40;;;;;;4999417;28;88395;-72
2022/05/21 10:17:52;;;;;;;7.72;3.05;;;22.00;81.70;;;;;;4999480;28;88749;-72
2022/05/21 10:20:26;;;;;;;5.78;1.83;;;22.00;81.00;;;;;;4997924;28;88677;-71
2022/05/21 10:23:02;;;;;;;6.60;2.70;;;21.50;79.60;;;;;;4998918;28;88729;-72
2022/05/21 10:25:47;;;;;;;4.35;1.63;;;21.40;81.20;;;;;;4999369;28;88393;-72
2022/05/21 10:28:26;;;;;;;7.72;2.80;;;21.70;80.70;;;;;;4997750;28;88873;-71
2022/05/21 10:31:22;;;;;;;8.18;3.50;;;21.90;80.40;;;;;;4996309;28;91492;-72
2022/05/21 10:34:15;;;;;;;6.10;3.15;;;22.20;81.00;;;;;;4997614;28;89362;-71
2022/05/21 10:37:18;;;;;;;3.80;1.77;;;22.20;81.00;;;;;;4997716;28;91007;-72
2022/05/21 10:40:10;;;;;;;6.20;3.30;;;22.20;79.70;;;;;;5014134;28;93082;-71
2022/05/21 10:43:16;;;;;;;6.28;2.75;;;22.20;79.00;;;;;;4997795;28;90987;-72
2022/05/21 10:46:05;;;;;;;3.85;2.58;;;22.40;77.70;;;;;;4996524;28;88022;-72
2022/05/21 10:48:51;;;;;;;7.85;3.63;;;22.50;77.80;;;;;;4998984;28;88172;-71
2022/05/21 10:51:31;;;;;;;5.13;2.13;;;22.70;77.60;;;;;;4998288;28;89609;-72
2022/05/21 10:54:17;;;;;;;4.32;1.50;;;23.00;75.70;;;;;;4980616;28;91900;-72
2022/05/21 10:56:48;;;;;;;4.32;1.90;;;23.10;74.90;;;;;;4980577;28;95995;-72
2022/05/21 10:59:37;;;;;;;6.63;2.75;;;23.10;75.40;;;;;;4998655;28;88392;-71
2022/05/21 11:02:25;;;;;;;9.02;3.20;;;23.20;74.70;;;;;;4997228;28;88094;-72
2022/05/21 11:05:04;;;;;;;3.97;1.67;;;23.10;75.20;;;;;;4997077;28;91302;-72
2022/05/21 11:07:41;;;;;;;5.78;2.35;;;23.20;76.30;;;;;;4996892;28;88019;-72
2022/05/21 11:10:25;;;;;;;8.45;1.92;;;23.10;76.40;;;;;;4997271;28;91151;-72
2022/05/21 11:12:58;;;;;;;8.13;2.78;;;23.00;75.60;;;;;;4998560;28;88577;-71
2022/05/21 11:15:40;;;;;;;5.13;2.38;;;22.70;76.00;;;;;;4996779;28;90115;-71
2022/05/21 11:18:25;;;;;;;5.53;1.90;;;22.50;75.60;;;;;;4998012;28;88774;-71
2022/05/21 11:21:17;;;;;;;5.72;3.25;;;22.40;76.10;;;;;;4997280;28;88442;-72
2022/05/21 11:24:05;;;;;;;5.72;3.30;;;22.30;76.80;;;;;;4998271;28;88991;-71
2022/05/21 11:26:42;;;;;;;6.32;2.47;;;22.40;78.00;;;;;;4997158;28;88655;-72
2022/05/21 11:29:34;;;;;;;6.30;1.90;;;22.70;77.40;;;;;;4996853;28;88420;-73
2022/05/21 11:37:45;;;;;;;8.35;2.28;;;22.80;75.80;;;;;;4998115;28;88622;-73
2022/05/21 11:40:50;;;;;;;6.97;1.90;;;22.80;75.60;;;;;;4997874;28;87965;-73
2022/05/21 11:43:19;;;;;;;4.18;2.10;;;22.70;75.20;;;;;;4936157;28;88412;-73
2022/05/21 11:46:06;;;;;;;5.35;1.60;;;22.70;73.70;;;;;;4936095;28;93077;-73
2022/05/21 11:48:33;;;;;;;6.10;2.55;;;22.70;73.30;;;;;;4975004;28;89297;-73
2022/05/21 11:51:19;;;;;;;6.40;1.90;;;22.60;73.70;;;;;;4996102;28;89420;-73
2022/05/21 11:53:46;;;;;;;4.65;1.73;;;22.80;73.60;;;;;;4997832;28;88764;-73
2022/05/21 11:56:15;;;;;;;5.22;2.40;;;22.90;74.00;;;;;;4997298;28;89675;-73
2022/05/21 11:58:57;;;;;;;6.80;2.47;;;23.30;74.40;;;;;;4996238;28;91173;-73
2022/05/21 12:01:36;;;;;;;4.50;1.52;;;23.50;71.30;;;;;;4997771;28;88708;-73
2022/05/21 12:04:03;;;;;;;6.85;2.20;;;23.60;71.30;;;;;;4996733;28;88326;-73
2022/05/21 12:06:38;;;;;;;5.30;1.83;;;23.70;71.90;;;;;;4997479;28;88718;-73
2022/05/21 12:09:34;;;;;;;4.93;1.98;;;23.70;70.70;;;;;;4996026;28;91098;-73
2022/05/21 12:12:21;;;;;;;5.40;2.17;;;23.60;69.70;;;;;;4995788;28;89348;-73
2022/05/21 12:14:52;;;;;;;5.00;1.65;;;23.40;70.40;;;;;;4997491;28;88939;-73
2022/05/21 12:18:06;;;;;;;6.72;3.42;;;23.20;71.10;;;;;;4997509;28;89601;-73
2022/05/21 12:20:48;;;;;;;5.43;1.95;;;23.20;72.00;;;;;;4995028;28;88650;-73
2022/05/21 12:23:33;;;;;;;7.82;2.10;;;23.00;72.70;;;;;;4995800;28;88005;-73
2022/05/21 12:26:08;;;;;;;6.22;2.35;;;23.10;74.50;;;;;;4996301;28;88284;-73
2022/05/21 12:28:51;;;;;;;5.95;2.13;;;23.20;74.90;;;;;;4997208;28;88787;-73
2022/05/21 12:31:27;;;;;;;6.55;3.42;;;23.20;74.20;;;;;;4990914;28;91159;-73
2022/05/21 12:34:22;;;;;;;6.35;1.90;;;23.30;72.90;;;;;;4991645;28;88334;-72
2022/05/21 12:37:04;;;;;;;6.03;2.38;;;23.30;73.30;;;;;;4997445;28;88356;-73
2022/05/21 12:39:52;;;;;;;7.70;2.00;;;23.30;73.80;;;;;;4995148;28;90576;-73
2022/05/21 12:42:30;;;;;;;4.78;2.42;;;23.20;73.10;;;;;;4979177;28;89262;-73
2022/05/21 12:44:57;;;;;;;8.10;2.10;;;23.10;72.00;;;;;;4979256;28;89706;-73
2022/05/21 12:47:27;;;;;;;5.03;3.80;;;23.00;72.20;;;;;;4997126;28;88482;-73
2022/05/21 12:49:54;;;;;;;5.72;1.80;;;23.00;72.20;;;;;;5012050;28;91256;-73
2022/05/21 12:52:29;;;;;;;6.75;2.78;;;22.90;71.50;;;;;;4996118;28;88666;-73
2022/05/21 12:55:31;;;;;;;6.57;2.10;;;22.80;72.90;;;;;;4998118;28;88102;-73
2022/05/21 12:58:16;;;;;;;7.53;2.80;;;22.60;72.70;;;;;;5000897;28;88326;-73
2022/05/21 13:00:53;;;;;;;7.18;2.22;;;22.60;74.30;;;;;;5000783;28;88850;-73
2022/05/21 13:03:23;;;;;;;3.95;1.45;;;22.40;72.80;;;;;;4998741;28;91039;-73
2022/05/21 13:05:59;;;;;;;6.25;1.80;;;22.30;73.50;;;;;;4998601;28;88795;-73
2022/05/21 13:08:28;;;;;;;7.28;3.35;;;22.40;73.60;;;;;;5000199;28;88382;-73
2022/05/21 13:11:05;;;;;;;6.70;2.20;;;22.40;74.20;;;;;;5000307;28;88781;-73
2022/05/21 13:13:38;;;;;;;5.70;3.15;;;22.40;74.50;;;;;;5000081;28;88510;-73
2022/05/21 13:16:12;;;;;;;7.75;2.05;;;22.40;74.30;;;;;;4998548;28;88907;-72
2022/05/21 13:18:50;;;;;;;6.13;2.80;;;22.30;73.20;;;;;;5015109;28;91283;-72
2022/05/21 13:21:23;;;;;;;5.55;2.13;;;22.20;73.40;;;;;;5000387;28;88572;-73
2022/05/21 13:24:02;;;;;;;7.30;3.08;;;22.00;73.60;;;;;;4999262;28;88680;-72
2022/05/21 13:26:34;;;;;;;4.88;2.30;;;22.10;73.20;;;;;;4998518;28;89247;-71
2022/05/21 13:29:19;;;;;;;4.03;1.48;;;22.20;74.00;;;;;;4998431;28;91036;-73
2022/05/21 13:31:51;;;;;;;5.45;2.05;;;22.40;73.00;;;;;;4998480;28;89303;-73